sensor_id;sensor_type;location;lat;lon;timestamp;pressure;altitude;pressure_sealevel;temperature;humidity
30819;BME280;17546;42.674;23.284;2023-12-07T00:01:42;94336.38;;;12.82;49.22
30819;BME280;17546;42.674;23.284;2023-12-07T00:04:08;94364.47;;;13.03;49.12
30819;BME280;17546;42.674;23.284;2023-12-07T00:06:33;94335.41;;;12.79;49.08
30819;BME280;17546;42.674;23.284;2023-12-07T00:08:59;94375.75;;;13.11;49.03
30819;BME280;17546;42.674;23.284;2023-12-07T00:11:26;94370.47;;;13.07;49.10
30819;BME280;17546;42.674;23.284;2023-12-07T00:13:52;94332.25;;;12.89;48.91
30819;BME280;17546;42.674;23.284;2023-12-07T00:16:17;94351.66;;;12.94;48.74
30819;BME280;17546;42.674;23.284;2023-12-07T00:18:44;94343.22;;;12.81;49.03
30819;BME280;17546;42.674;23.284;2023-12-07T00:21:09;94370.47;;;13.07;48.53
30819;BME280;17546;42.674;23.284;2023-12-07T00:23:36;94327.41;;;12.70;48.57
30819;BME280;17546;42.674;23.284;2023-12-07T00:26:03;94354.78;;;12.85;48.82
30819;BME280;17546;42.674;23.284;2023-12-07T00:28:29;94354.22;;;12.92;48.42
30819;BME280;17546;42.674;23.284;2023-12-07T00:30:55;94330.31;;;12.84;48.61
30819;BME280;17546;42.674;23.284;2023-12-07T00:33:20;94349.31;;;12.98;48.62
30819;BME280;17546;42.674;23.284;2023-12-07T00:35:47;94347.56;;;13.01;48.61
30819;BME280;17546;42.674;23.284;2023-12-07T00:38:12;94343.94;;;13.06;48.09
30819;BME280;17546;42.674;23.284;2023-12-07T00:40:38;94333.34;;;13.05;48.19
30819;BME280;17546;42.674;23.284;2023-12-07T00:43:05;94377.28;;;13.36;48.12
30819;BME280;17546;42.674;23.284;2023-12-07T00:45:31;94380.09;;;13.31;48.29
30819;BME280;17546;42.674;23.284;2023-12-07T00:47:56;94339.84;;;13.13;48.16
30819;BME280;17546;42.674;23.284;2023-12-07T00:50:22;94309.50;;;12.90;48.35
30819;BME280;17546;42.674;23.284;2023-12-07T00:52:47;94367.72;;;13.32;48.42
30819;BME280;17546;42.674;23.284;2023-12-07T00:55:13;94345.50;;;13.26;48.23
30819;BME280;17546;42.674;23.284;2023-12-07T00:57:39;94381.16;;;13.47;48.26
30819;BME280;17546;42.674;23.284;2023-12-07T01:00:05;94365.81;;;13.40;48.28
30819;BME280;17546;42.674;23.284;2023-12-07T01:02:31;94329.63;;;13.21;48.19
30819;BME280;17546;42.674;23.284;2023-12-07T01:04:58;94346.44;;;13.34;48.04
30819;BME280;17546;42.674;23.284;2023-12-07T01:07:23;94367.03;;;13.44;48.23
30819;BME280;17546;42.674;23.284;2023-12-07T01:09:49;94363.13;;;13.34;48.51
30819;BME280;17546;42.674;23.284;2023-12-07T01:12:15;94350.44;;;13.39;48.37
30819;BME280;17546;42.674;23.284;2023-12-07T01:14:40;94300.22;;;13.07;48.39
30819;BME280;17546;42.674;23.284;2023-12-07T01:17:06;94331.34;;;13.24;48.26
30819;BME280;17546;42.674;23.284;2023-12-07T01:19:31;94336.41;;;13.26;48.52
30819;BME280;17546;42.674;23.284;2023-12-07T01:21:57;94337.31;;;13.34;48.33
30819;BME280;17546;42.674;23.284;2023-12-07T01:24:22;94359.59;;;13.53;48.02
30819;BME280;17546;42.674;23.284;2023-12-07T01:26:48;94367.13;;;13.58;48.14
30819;BME280;17546;42.674;23.284;2023-12-07T01:29:14;94343.50;;;13.46;47.99
30819;BME280;17546;42.674;23.284;2023-12-07T01:31:40;94355.56;;;13.54;48.06
30819;BME280;17546;42.674;23.284;2023-12-07T01:34:06;94350.09;;;13.42;48.18
30819;BME280;17546;42.674;23.284;2023-12-07T01:36:31;94341.56;;;13.40;48.05
30819;BME280;17546;42.674;23.284;2023-12-07T01:38:57;94329.19;;;13.36;48.26
30819;BME280;17546;42.674;23.284;2023-12-07T01:41:22;94314.66;;;13.24;48.19
30819;BME280;17546;42.674;23.284;2023-12-07T01:43:48;94348.47;;;13.53;48.11
30819;BME280;17546;42.674;23.284;2023-12-07T01:46:15;94362.75;;;13.43;48.16
30819;BME280;17546;42.674;23.284;2023-12-07T01:48:42;94312.16;;;13.01;48.34
30819;BME280;17546;42.674;23.284;2023-12-07T01:51:08;94368.09;;;13.41;48.15
30819;BME280;17546;42.674;23.284;2023-12-07T01:53:34;94304.94;;;12.93;48.45
30819;BME280;17546;42.674;23.284;2023-12-07T01:56:00;94317.47;;;12.99;48.51
30819;BME280;17546;42.674;23.284;2023-12-07T01:58:25;94333.06;;;13.08;48.73
30819;BME280;17546;42.674;23.284;2023-12-07T02:00:51;94346.97;;;13.27;48.70
30819;BME280;17546;42.674;23.284;2023-12-07T02:03:17;94356.88;;;13.28;48.29
30819;BME280;17546;42.674;23.284;2023-12-07T02:05:46;94328.94;;;13.15;48.66
30819;BME280;17546;42.674;23.284;2023-12-07T02:08:12;94350.25;;;13.31;48.65
30819;BME280;17546;42.674;23.284;2023-12-07T02:10:38;94327.88;;;13.18;48.45
30819;BME280;17546;42.674;23.284;2023-12-07T02:13:04;94325.88;;;13.18;48.65
30819;BME280;17546;42.674;23.284;2023-12-07T02:15:29;94356.50;;;13.37;48.45
30819;BME280;17546;42.674;23.284;2023-12-07T02:18:14;94360.66;;;13.50;48.39
30819;BME280;17546;42.674;23.284;2023-12-07T02:23:23;94304.88;;;13.17;48.25
30819;BME280;17546;42.674;23.284;2023-12-07T02:26:20;94351.25;;;13.53;48.23
30819;BME280;17546;42.674;23.284;2023-12-07T02:28:47;94288.94;;;13.18;48.27
30819;BME280;17546;42.674;23.284;2023-12-07T02:31:12;94327.09;;;13.42;48.27
30819;BME280;17546;42.674;23.284;2023-12-07T02:50:27;94336.56;;;13.33;48.50
30819;BME280;17546;42.674;23.284;2023-12-07T02:52:52;94309.47;;;13.15;48.17
30819;BME280;17546;42.674;23.284;2023-12-07T02:55:18;94308.56;;;13.07;48.18
30819;BME280;17546;42.674;23.284;2023-12-07T02:57:43;94302.84;;;12.99;48.60
30819;BME280;17546;42.674;23.284;2023-12-07T03:00:09;94336.91;;;13.24;48.48
30819;BME280;17546;42.674;23.284;2023-12-07T03:02:38;94325.69;;;13.11;48.38
30819;BME280;17546;42.674;23.284;2023-12-07T03:05:05;94341.69;;;13.29;48.25
30819;BME280;17546;42.674;23.284;2023-12-07T03:07:32;94323.88;;;13.13;48.30
30819;BME280;17546;42.674;23.284;2023-12-07T03:09:57;94281.59;;;12.77;48.63
30819;BME280;17546;42.674;23.284;2023-12-07T03:12:23;94322.66;;;12.90;48.81
30819;BME280;17546;42.674;23.284;2023-12-07T03:14:49;94333.47;;;12.93;48.60
30819;BME280;17546;42.674;23.284;2023-12-07T03:17:15;94345.38;;;13.13;48.43
30819;BME280;17546;42.674;23.284;2023-12-07T03:19:40;94318.13;;;12.87;48.83
30819;BME280;17546;42.674;23.284;2023-12-07T03:22:06;94331.72;;;13.15;48.54
30819;BME280;17546;42.674;23.284;2023-12-07T03:24:36;94358.38;;;13.29;48.33
30819;BME280;17546;42.674;23.284;2023-12-07T03:27:02;94344.56;;;13.18;48.30
30819;BME280;17546;42.674;23.284;2023-12-07T03:29:28;94360.88;;;13.27;48.04
30819;BME280;17546;42.674;23.284;2023-12-07T03:31:54;94368.00;;;13.28;48.19
30819;BME280;17546;42.674;23.284;2023-12-07T03:34:19;94326.75;;;13.08;47.82
30819;BME280;17546;42.674;23.284;2023-12-07T03:36:46;94338.22;;;12.74;48.40
30819;BME280;17546;42.674;23.284;2023-12-07T03:39:12;94299.31;;;12.49;48.35
30819;BME280;17546;42.674;23.284;2023-12-07T03:41:38;94352.47;;;12.89;48.24
30819;BME280;17546;42.674;23.284;2023-12-07T03:44:03;94366.72;;;13.05;48.27
30819;BME280;17546;42.674;23.284;2023-12-07T03:46:29;94356.19;;;12.97;48.04
30819;BME280;17546;42.674;23.284;2023-12-07T03:48:54;94366.88;;;13.12;47.83
30819;BME280;17546;42.674;23.284;2023-12-07T03:51:20;94314.13;;;12.82;47.85
30819;BME280;17546;42.674;23.284;2023-12-07T03:53:45;94317.66;;;12.82;47.85
30819;BME280;17546;42.674;23.284;2023-12-07T03:56:11;94366.25;;;13.00;48.38
30819;BME280;17546;42.674;23.284;2023-12-07T03:58:36;94311.19;;;12.74;47.87
30819;BME280;17546;42.674;23.284;2023-12-07T04:01:02;94327.56;;;13.02;47.87
30819;BME280;17546;42.674;23.284;2023-12-07T04:03:27;94334.03;;;13.11;47.81
30819;BME280;17546;42.674;23.284;2023-12-07T04:05:53;94332.63;;;13.23;47.66
30819;BME280;17546;42.674;23.284;2023-12-07T04:08:18;94287.50;;;12.92;47.12
30819;BME280;17546;42.674;23.284;2023-12-07T04:10:43;94312.06;;;12.88;47.46
30819;BME280;17546;42.674;23.284;2023-12-07T04:13:09;94335.09;;;13.08;47.54
30819;BME280;17546;42.674;23.284;2023-12-07T04:15:35;94344.78;;;13.20;47.60
30819;BME280;17546;42.674;23.284;2023-12-07T04:18:00;94317.03;;;12.95;47.64
30819;BME280;17546;42.674;23.284;2023-12-07T04:20:26;94364.72;;;13.24;47.72
30819;BME280;17546;42.674;23.284;2023-12-07T04:22:51;94350.94;;;13.13;47.76
30819;BME280;17546;42.674;23.284;2023-12-07T04:25:17;94338.44;;;13.00;47.70
30819;BME280;17546;42.674;23.284;2023-12-07T04:27:43;94355.22;;;13.14;47.55
30819;BME280;17546;42.674;23.284;2023-12-07T04:30:09;94343.22;;;12.81;47.98
30819;BME280;17546;42.674;23.284;2023-12-07T04:32:34;94382.91;;;13.00;48.03
30819;BME280;17546;42.674;23.284;2023-12-07T04:35:00;94382.00;;;12.92;48.09
30819;BME280;17546;42.674;23.284;2023-12-07T04:37:25;94365.91;;;12.85;48.25
30819;BME280;17546;42.674;23.284;2023-12-07T04:39:51;94351.38;;;12.73;48.31
30819;BME280;17546;42.674;23.284;2023-12-07T04:42:16;94373.97;;;12.89;48.05
30819;BME280;17546;42.674;23.284;2023-12-07T04:44:41;94388.66;;;13.08;48.25
30819;BME280;17546;42.674;23.284;2023-12-07T04:47:07;94335.19;;;12.72;47.85
30819;BME280;17546;42.674;23.284;2023-12-07T04:49:32;94380.84;;;13.07;48.27
30819;BME280;17546;42.674;23.284;2023-12-07T04:51:58;94359.47;;;12.96;48.34
30819;BME280;17546;42.674;23.284;2023-12-07T04:54:23;94356.28;;;12.86;48.36
30819;BME280;17546;42.674;23.284;2023-12-07T04:56:49;94363.22;;;12.98;48.33
30819;BME280;17546;42.674;23.284;2023-12-07T04:59:14;94387.50;;;13.22;48.00
30819;BME280;17546;42.674;23.284;2023-12-07T05:01:40;94393.03;;;13.03;48.20
30819;BME280;17546;42.674;23.284;2023-12-07T05:04:05;94366.31;;;12.70;48.54
30819;BME280;17546;42.674;23.284;2023-12-07T05:06:31;94396.25;;;13.08;48.45
30819;BME280;17546;42.674;23.284;2023-12-07T05:08:57;94388.66;;;13.08;48.40
30819;BME280;17546;42.674;23.284;2023-12-07T05:11:23;94375.63;;;12.97;48.58
30819;BME280;17546;42.674;23.284;2023-12-07T05:13:48;94399.22;;;13.15;48.46
30819;BME280;17546;42.674;23.284;2023-12-07T05:16:14;94394.69;;;13.12;48.37
30819;BME280;17546;42.674;23.284;2023-12-07T05:18:40;94380.72;;;12.93;48.21
30819;BME280;17546;42.674;23.284;2023-12-07T05:21:06;94370.78;;;13.03;48.20
30819;BME280;17546;42.674;23.284;2023-12-07T05:23:32;94351.72;;;12.89;47.99
30819;BME280;17546;42.674;23.284;2023-12-07T05:25:58;94353.97;;;12.90;48.50
30819;BME280;17546;42.674;23.284;2023-12-07T05:28:25;94379.63;;;13.02;48.27
30819;BME280;17546;42.674;23.284;2023-12-07T05:30:50;94386.88;;;13.11;48.42
30819;BME280;17546;42.674;23.284;2023-12-07T05:33:16;94401.94;;;13.21;48.31
30819;BME280;17546;42.674;23.284;2023-12-07T05:35:41;94424.09;;;13.32;47.92
30819;BME280;17546;42.674;23.284;2023-12-07T05:38:07;94426.34;;;13.34;47.91
30819;BME280;17546;42.674;23.284;2023-12-07T05:40:32;94405.88;;;13.31;47.85
30819;BME280;17546;42.674;23.284;2023-12-07T05:42:59;94392.03;;;13.26;47.70
30819;BME280;17546;42.674;23.284;2023-12-07T05:45:25;94385.25;;;13.21;47.62
30819;BME280;17546;42.674;23.284;2023-12-07T05:47:51;94392.31;;;13.22;47.57
30819;BME280;17546;42.674;23.284;2023-12-07T05:50:17;94424.44;;;13.48;47.71
30819;BME280;17546;42.674;23.284;2023-12-07T05:52:42;94420.13;;;13.47;47.61
30819;BME280;17546;42.674;23.284;2023-12-07T05:55:08;94398.00;;;13.35;47.50
30819;BME280;17546;42.674;23.284;2023-12-07T05:57:33;94411.13;;;13.40;47.42
30819;BME280;17546;42.674;23.284;2023-12-07T05:59:59;94422.25;;;13.40;47.39
30819;BME280;17546;42.674;23.284;2023-12-07T06:02:25;94408.28;;;13.16;47.33
30819;BME280;17546;42.674;23.284;2023-12-07T06:04:50;94388.41;;;13.12;47.39
30819;BME280;17546;42.674;23.284;2023-12-07T06:07:16;94407.03;;;13.17;47.64
30819;BME280;17546;42.674;23.284;2023-12-07T06:09:41;94380.84;;;12.82;47.89
30819;BME280;17546;42.674;23.284;2023-12-07T06:12:07;94443.53;;;13.08;48.22
30819;BME280;17546;42.674;23.284;2023-12-07T06:14:32;94390.22;;;12.79;48.10
30819;BME280;17546;42.674;23.284;2023-12-07T06:16:58;94380.72;;;12.69;48.16
30819;BME280;17546;42.674;23.284;2023-12-07T06:19:24;94440.09;;;12.96;48.45
30819;BME280;17546;42.674;23.284;2023-12-07T06:21:50;94413.38;;;12.87;48.33
30819;BME280;17546;42.674;23.284;2023-12-07T06:24:15;94438.97;;;13.10;48.59
30819;BME280;17546;42.674;23.284;2023-12-07T06:26:41;94417.28;;;13.03;48.45
30819;BME280;17546;42.674;23.284;2023-12-07T06:29:06;94384.44;;;13.01;48.25
30819;BME280;17546;42.674;23.284;2023-12-07T06:31:33;94437.03;;;13.30;48.31
30819;BME280;17546;42.674;23.284;2023-12-07T06:33:59;94425.59;;;13.33;48.13
30819;BME280;17546;42.674;23.284;2023-12-07T06:36:26;94452.53;;;13.44;47.71
30819;BME280;17546;42.674;23.284;2023-12-07T06:38:56;94415.31;;;13.22;47.92
30819;BME280;17546;42.674;23.284;2023-12-07T06:41:23;94456.47;;;13.54;47.57
30819;BME280;17546;42.674;23.284;2023-12-07T06:43:48;94436.88;;;13.16;47.77
30819;BME280;17546;42.674;23.284;2023-12-07T06:46:14;94437.56;;;13.22;47.63
30819;BME280;17546;42.674;23.284;2023-12-07T06:48:41;94445.09;;;13.28;47.79
30819;BME280;17546;42.674;23.284;2023-12-07T06:51:07;94453.59;;;13.41;47.76
30819;BME280;17546;42.674;23.284;2023-12-07T06:53:32;94423.72;;;13.17;47.75
30819;BME280;17546;42.674;23.284;2023-12-07T06:55:58;94462.22;;;13.37;47.90
30819;BME280;17546;42.674;23.284;2023-12-07T06:58:24;94425.56;;;13.09;47.92
30819;BME280;17546;42.674;23.284;2023-12-07T07:00:49;94457.81;;;13.48;47.45
30819;BME280;17546;42.674;23.284;2023-12-07T07:03:15;94446.69;;;13.48;47.64
30819;BME280;17546;42.674;23.284;2023-12-07T07:05:41;94458.09;;;13.44;47.78
30819;BME280;17546;42.674;23.284;2023-12-07T07:08:06;94459.66;;;13.39;47.53
30819;BME280;17546;42.674;23.284;2023-12-07T07:17:28;94436.19;;;13.10;47.72
30819;BME280;17546;42.674;23.284;2023-12-07T07:19:54;94466.78;;;13.10;48.19
30819;BME280;17546;42.674;23.284;2023-12-07T07:22:21;94430.84;;;12.57;48.41
30819;BME280;17546;42.674;23.284;2023-12-07T07:24:47;94416.34;;;12.70;48.13
30819;BME280;17546;42.674;23.284;2023-12-07T07:27:12;94470.50;;;13.18;47.88
30819;BME280;17546;42.674;23.284;2023-12-07T07:29:38;94482.56;;;12.66;49.20
30819;BME280;17546;42.674;23.284;2023-12-07T07:32:04;94469.41;;;12.97;48.26
30819;BME280;17546;42.674;23.284;2023-12-07T07:34:29;94459.00;;;12.73;48.58
30819;BME280;17546;42.674;23.284;2023-12-07T07:36:55;94451.25;;;12.66;48.68
30819;BME280;17546;42.674;23.284;2023-12-07T07:39:20;94479.31;;;12.92;48.52
30819;BME280;17546;42.674;23.284;2023-12-07T07:41:46;94422.91;;;12.37;48.95
30819;BME280;17546;42.674;23.284;2023-12-07T07:44:11;94420.28;;;12.14;49.42
30819;BME280;17546;42.674;23.284;2023-12-07T07:46:37;94494.34;;;11.84;51.11
30819;BME280;17546;42.674;23.284;2023-12-07T07:49:02;94455.03;;;11.79;50.37
30819;BME280;17546;42.674;23.284;2023-12-07T07:51:29;94463.31;;;11.85;50.47
30819;BME280;17546;42.674;23.284;2023-12-07T07:53:55;94487.22;;;12.05;50.26
30819;BME280;17546;42.674;23.284;2023-12-07T07:56:21;94461.88;;;11.62;50.83
30819;BME280;17546;42.674;23.284;2023-12-07T07:58:47;94470.13;;;11.90;50.20
30819;BME280;17546;42.674;23.284;2023-12-07T08:01:13;94440.88;;;11.83;50.05
30819;BME280;17546;42.674;23.284;2023-12-07T08:03:38;94513.88;;;12.25;49.88
30819;BME280;17546;42.674;23.284;2023-12-07T08:06:04;94493.59;;;11.83;50.18
30819;BME280;17546;42.674;23.284;2023-12-07T08:08:29;94498.97;;;11.64;50.88
30819;BME280;17546;42.674;23.284;2023-12-07T08:10:55;94477.25;;;11.68;50.40
30819;BME280;17546;42.674;23.284;2023-12-07T08:13:20;94494.72;;;11.46;50.85
30819;BME280;17546;42.674;23.284;2023-12-07T08:15:46;94488.22;;;11.27;51.02
30819;BME280;17546;42.674;23.284;2023-12-07T08:18:11;94502.13;;;10.99;51.76
30819;BME280;17546;42.674;23.284;2023-12-07T08:20:37;94491.56;;;10.91;51.86
30819;BME280;17546;42.674;23.284;2023-12-07T08:23:03;94535.84;;;11.36;51.01
30819;BME280;17546;42.674;23.284;2023-12-07T08:25:28;94499.06;;;11.30;50.62
30819;BME280;17546;42.674;23.284;2023-12-07T08:27:54;94471.91;;;11.01;50.92
30819;BME280;17546;42.674;23.284;2023-12-07T08:30:19;94523.16;;;10.23;53.03
30819;BME280;17546;42.674;23.284;2023-12-07T08:32:45;94542.69;;;10.96;51.78
30819;BME280;17546;42.674;23.284;2023-12-07T08:35:11;94496.19;;;10.01;53.04
30819;BME280;17546;42.674;23.284;2023-12-07T08:37:37;94495.91;;;9.87;53.39
30819;BME280;17546;42.674;23.284;2023-12-07T08:40:03;94549.16;;;10.31;53.00
30819;BME280;17546;42.674;23.284;2023-12-07T08:42:29;94492.44;;;9.38;54.50
30819;BME280;17546;42.674;23.284;2023-12-07T08:44:56;94536.56;;;9.64;54.46
30819;BME280;17546;42.674;23.284;2023-12-07T08:47:22;94511.75;;;9.81;53.17
30819;BME280;17546;42.674;23.284;2023-12-07T08:49:47;94545.31;;;10.23;53.00
30819;BME280;17546;42.674;23.284;2023-12-07T08:52:13;94506.78;;;10.13;52.05
30819;BME280;17546;42.674;23.284;2023-12-07T08:54:38;94512.13;;;10.28;52.52
30819;BME280;17546;42.674;23.284;2023-12-07T08:57:04;94508.84;;;9.59;53.09
30819;BME280;17546;42.674;23.284;2023-12-07T08:59:29;94502.69;;;8.89;55.44
30819;BME280;17546;42.674;23.284;2023-12-07T09:01:58;94543.09;;;8.86;56.22
30819;BME280;17546;42.674;23.284;2023-12-07T09:04:24;94508.13;;;9.15;54.78
30819;BME280;17546;42.674;23.284;2023-12-07T09:06:49;94523.31;;;9.37;54.38
30819;BME280;17546;42.674;23.284;2023-12-07T09:09:14;94549.41;;;8.93;54.95
30819;BME280;17546;42.674;23.284;2023-12-07T09:11:40;94521.56;;;8.64;55.88
30819;BME280;17546;42.674;23.284;2023-12-07T09:14:06;94511.09;;;8.74;55.33
30819;BME280;17546;42.674;23.284;2023-12-07T09:16:31;94523.13;;;9.03;55.04
30819;BME280;17546;42.674;23.284;2023-12-07T09:18:57;94523.19;;;9.14;54.53
30819;BME280;17546;42.674;23.284;2023-12-07T09:21:22;94539.41;;;9.33;54.61
30819;BME280;17546;42.674;23.284;2023-12-07T09:23:48;94513.78;;;8.63;55.60
30819;BME280;17546;42.674;23.284;2023-12-07T09:26:13;94553.16;;;8.58;55.92
30819;BME280;17546;42.674;23.284;2023-12-07T09:28:39;94553.69;;;8.94;55.28
30819;BME280;17546;42.674;23.284;2023-12-07T09:31:05;94534.47;;;8.47;56.21
30819;BME280;17546;42.674;23.284;2023-12-07T09:33:31;94534.09;;;9.29;54.53
30819;BME280;17546;42.674;23.284;2023-12-07T09:35:56;94541.03;;;8.81;55.53
30819;BME280;17546;42.674;23.284;2023-12-07T09:38:22;94523.25;;;8.88;54.91
30819;BME280;17546;42.674;23.284;2023-12-07T09:40:52;94554.94;;;9.24;54.66
30819;BME280;17546;42.674;23.284;2023-12-07T09:43:18;94552.88;;;8.56;56.05
30819;BME280;17546;42.674;23.284;2023-12-07T09:45:44;94551.56;;;9.09;55.00
30819;BME280;17546;42.674;23.284;2023-12-07T09:48:10;94551.75;;;9.00;54.99
30819;BME280;17546;42.674;23.284;2023-12-07T09:50:36;94537.72;;;9.09;54.32
30819;BME280;17546;42.674;23.284;2023-12-07T09:53:02;94558.22;;;8.65;54.78
30819;BME280;17546;42.674;23.284;2023-12-07T09:55:28;94547.25;;;9.08;54.30
30819;BME280;17546;42.674;23.284;2023-12-07T09:57:53;94515.38;;;8.75;54.37
30819;BME280;17546;42.674;23.284;2023-12-07T10:00:22;94519.84;;;8.41;54.89
30819;BME280;17546;42.674;23.284;2023-12-07T10:02:48;94511.09;;;7.75;56.41
30819;BME280;17546;42.674;23.284;2023-12-07T10:05:14;94549.66;;;8.63;55.40
30819;BME280;17546;42.674;23.284;2023-12-07T10:07:44;94555.00;;;8.72;54.76
30819;BME280;17546;42.674;23.284;2023-12-07T10:10:11;94565.22;;;8.14;56.37
30819;BME280;17546;42.674;23.284;2023-12-07T10:12:48;94545.59;;;8.32;55.43
30819;BME280;17546;42.674;23.284;2023-12-07T10:15:16;94526.34;;;7.71;56.24
30819;BME280;17546;42.674;23.284;2023-12-07T10:17:45;94520.53;;;7.89;55.75
30819;BME280;17546;42.674;23.284;2023-12-07T10:20:22;94549.22;;;7.77;56.63
30819;BME280;17546;42.674;23.284;2023-12-07T10:22:49;94563.91;;;8.56;54.85
30819;BME280;17546;42.674;23.284;2023-12-07T10:25:26;94534.75;;;8.28;55.17
30819;BME280;17546;42.674;23.284;2023-12-07T10:27:51;94558.81;;;8.48;55.32
30819;BME280;17546;42.674;23.284;2023-12-07T10:30:17;94545.44;;;8.41;55.13
30819;BME280;17546;42.674;23.284;2023-12-07T10:32:50;94548.78;;;8.25;55.43
30819;BME280;17546;42.674;23.284;2023-12-07T10:35:16;94544.09;;;8.11;55.77
30819;BME280;17546;42.674;23.284;2023-12-07T10:37:42;94521.63;;;7.97;55.54
30819;BME280;17546;42.674;23.284;2023-12-07T10:40:07;94545.63;;;7.91;55.91
30819;BME280;17546;42.674;23.284;2023-12-07T10:42:35;94553.78;;;8.00;55.64
30819;BME280;17546;42.674;23.284;2023-12-07T10:45:04;94541.72;;;8.44;54.35
30819;BME280;17546;42.674;23.284;2023-12-07T10:47:34;94529.19;;;8.23;54.91
30819;BME280;17546;42.674;23.284;2023-12-07T10:50:03;94556.72;;;8.17;55.25
30819;BME280;17546;42.674;23.284;2023-12-07T10:52:31;94539.78;;;8.30;54.69
30819;BME280;17546;42.674;23.284;2023-12-07T10:55:07;94497.25;;;7.90;54.83
30819;BME280;17546;42.674;23.284;2023-12-07T10:57:36;94523.59;;;8.17;54.76
30819;BME280;17546;42.674;23.284;2023-12-07T11:00:04;94525.22;;;8.03;54.79
30819;BME280;17546;42.674;23.284;2023-12-07T11:02:32;94558.06;;;8.48;54.78
30819;BME280;17546;42.674;23.284;2023-12-07T11:04:59;94555.13;;;8.57;54.32
30819;BME280;17546;42.674;23.284;2023-12-07T11:07:37;94545.34;;;8.10;55.31
30819;BME280;17546;42.674;23.284;2023-12-07T11:10:12;94563.88;;;8.82;53.98
30819;BME280;17546;42.674;23.284;2023-12-07T11:12:49;94531.66;;;8.21;54.92
30819;BME280;17546;42.674;23.284;2023-12-07T11:15:16;94566.72;;;8.61;54.18
30819;BME280;17546;42.674;23.284;2023-12-07T11:17:54;94559.03;;;8.71;54.18
30819;BME280;17546;42.674;23.284;2023-12-07T11:20:22;94569.47;;;8.87;53.46
30819;BME280;17546;42.674;23.284;2023-12-07T11:22:49;94529.97;;;8.81;53.36
30819;BME280;17546;42.674;23.284;2023-12-07T11:25:15;94554.16;;;8.86;53.62
30819;BME280;17546;42.674;23.284;2023-12-07T11:27:44;94546.56;;;8.81;53.57
30819;BME280;17546;42.674;23.284;2023-12-07T11:30:15;94517.53;;;8.60;53.54
30819;BME280;17546;42.674;23.284;2023-12-07T11:32:41;94502.72;;;8.37;53.64
30819;BME280;17546;42.674;23.284;2023-12-07T11:35:11;94562.00;;;8.67;54.11
30819;BME280;17546;42.674;23.284;2023-12-07T11:38:03;94557.38;;;8.85;53.87
30819;BME280;17546;42.674;23.284;2023-12-07T11:40:32;94550.34;;;8.84;53.47
30819;BME280;17546;42.674;23.284;2023-12-07T11:43:01;94520.47;;;8.82;53.34
30819;BME280;17546;42.674;23.284;2023-12-07T11:45:59;94552.22;;;9.36;52.73
30819;BME280;17546;42.674;23.284;2023-12-07T11:48:25;94525.44;;;8.78;53.26
30819;BME280;17546;42.674;23.284;2023-12-07T11:50:58;94533.81;;;8.89;53.24
30819;BME280;17546;42.674;23.284;2023-12-07T11:53:33;94514.13;;;8.76;53.39
30819;BME280;17546;42.674;23.284;2023-12-07T11:56:00;94548.41;;;9.27;52.51
30819;BME280;17546;42.674;23.284;2023-12-07T11:58:30;94509.75;;;8.64;53.02
30819;BME280;17546;42.674;23.284;2023-12-07T12:00:56;94538.63;;;8.95;53.43
30819;BME280;17546;42.674;23.284;2023-12-07T12:03:26;94530.06;;;8.93;53.02
30819;BME280;17546;42.674;23.284;2023-12-07T12:05:52;94550.69;;;9.35;52.79
30819;BME280;17546;42.674;23.284;2023-12-07T12:08:18;94531.59;;;8.94;53.20
30819;BME280;17546;42.674;23.284;2023-12-07T12:10:44;94542.19;;;9.01;53.13
30819;BME280;17546;42.674;23.284;2023-12-07T12:13:10;94506.13;;;8.84;53.41
30819;BME280;17546;42.674;23.284;2023-12-07T12:15:37;94546.63;;;9.24;52.76
30819;BME280;17546;42.674;23.284;2023-12-07T12:18:04;94509.69;;;8.84;52.83
30819;BME280;17546;42.674;23.284;2023-12-07T12:20:30;94504.44;;;8.86;53.20
30819;BME280;17546;42.674;23.284;2023-12-07T12:22:56;94545.94;;;8.98;53.20
30819;BME280;17546;42.674;23.284;2023-12-07T12:25:30;94540.50;;;8.77;53.08
30819;BME280;17546;42.674;23.284;2023-12-07T12:28:02;94508.13;;;8.25;53.98
30819;BME280;17546;42.674;23.284;2023-12-07T12:30:29;94528.38;;;8.69;53.65
30819;BME280;17546;42.674;23.284;2023-12-07T12:32:56;94515.38;;;8.75;53.25
30819;BME280;17546;42.674;23.284;2023-12-07T12:35:22;94545.97;;;8.72;54.12
30819;BME280;17546;42.674;23.284;2023-12-07T12:37:48;94524.34;;;8.18;54.54
30819;BME280;17546;42.674;23.284;2023-12-07T12:40:19;94521.94;;;8.25;54.09
30819;BME280;17546;42.674;23.284;2023-12-07T12:42:49;94542.75;;;8.26;55.05
30819;BME280;17546;42.674;23.284;2023-12-07T12:45:16;94539.53;;;8.54;54.52
30819;BME280;17546;42.674;23.284;2023-12-07T12:47:44;94522.53;;;8.35;54.12
30819;BME280;17546;42.674;23.284;2023-12-07T12:50:39;94555.09;;;8.83;54.30
30819;BME280;17546;42.674;23.284;2023-12-07T12:53:06;94561.28;;;8.73;54.33
30819;BME280;17546;42.674;23.284;2023-12-07T12:55:39;94550.25;;;8.46;54.15
30819;BME280;17546;42.674;23.284;2023-12-07T12:58:09;94569.19;;;8.85;53.79
30819;BME280;17546;42.674;23.284;2023-12-07T13:00:38;94540.34;;;8.86;53.32
30819;BME280;17546;42.674;23.284;2023-12-07T13:03:05;94568.66;;;8.55;54.30
30819;BME280;17546;42.674;23.284;2023-12-07T13:05:31;94560.34;;;8.50;54.10
30819;BME280;17546;42.674;23.284;2023-12-07T13:07:58;94564.00;;;8.67;53.86
30819;BME280;17546;42.674;23.284;2023-12-07T13:10:25;94573.31;;;8.96;53.38
30819;BME280;17546;42.674;23.284;2023-12-07T13:12:51;94556.34;;;8.30;54.29
30819;BME280;17546;42.674;23.284;2023-12-07T13:15:16;94534.94;;;7.99;54.79
30819;BME280;17546;42.674;23.284;2023-12-07T13:17:42;94573.38;;;8.28;54.85